createdAt,value
2023-01-25T11:23:49.143Z,24.40
2023-01-25T11:24:47.611Z,24.35
2023-01-25T11:25:47.527Z,24.27
2023-01-25T11:26:47.484Z,24.23
2023-01-25T11:27:47.403Z,24.14
2023-01-25T14:37:47.248Z,26.35
2023-01-25T14:38:47.234Z,26.27
2023-01-25T14:39:47.224Z,26.45
2023-01-25T14:40:47.243Z,26.44
2023-01-25T14:41:59.315Z,26.40
2023-01-25T14:42:48.214Z,26.29
2023-01-25T14:43:47.198Z,26.19
2023-01-25T14:44:47.181Z,26.14
2023-01-25T14:45:47.225Z,26.11
2023-01-25T14:46:47.161Z,26.07
2023-01-25T14:47:58.286Z,26.02
2023-01-25T14:48:48.175Z,25.97
2023-01-25T14:49:47.166Z,25.90
2023-01-25T14:50:47.158Z,25.85
2023-01-25T14:51:47.160Z,25.81
2023-01-25T14:52:47.153Z,25.75
2023-01-25T14:53:47.111Z,25.73
2023-01-25T14:54:47.131Z,25.71
2023-01-25T14:55:47.125Z,25.68
2023-01-25T14:56:47.148Z,25.66
2023-01-25T14:57:47.087Z,25.64
2023-01-25T14:58:50.954Z,25.60
2023-01-25T14:59:48.100Z,25.57
2023-01-25T15:00:47.075Z,25.56
2023-01-25T15:01:47.070Z,25.51
2023-01-25T15:02:47.131Z,25.49
2023-01-25T15:03:47.042Z,25.47
2023-01-25T15:04:47.055Z,25.46
2023-01-25T15:05:47.066Z,25.45
2023-01-25T15:06:47.074Z,25.44
2023-01-25T15:07:47.037Z,25.44
2023-01-25T15:08:47.022Z,25.43
2023-01-25T15:09:47.012Z,25.41
2023-01-25T15:10:47.021Z,25.39
2023-01-25T15:11:47.027Z,25.37
2023-01-25T15:12:47.063Z,25.34
2023-01-25T15:13:47.099Z,25.31
2023-01-25T15:14:47.154Z,25.25
2023-01-25T15:15:47.111Z,25.20
2023-01-25T15:16:47.191Z,25.17
2023-01-25T15:17:47.148Z,25.14
2023-01-25T15:18:47.225Z,25.14
2023-01-25T15:19:47.222Z,25.17
2023-01-25T15:20:47.235Z,25.22
2023-01-25T15:21:47.274Z,25.26
2023-01-25T15:22:47.313Z,25.30
2023-01-25T15:23:47.377Z,25.35
2023-01-25T15:25:47.337Z,25.45
2023-01-25T15:26:47.304Z,25.49
2023-01-25T15:27:47.312Z,25.54
2023-01-25T15:28:47.320Z,25.56
2023-01-25T15:29:47.360Z,25.61
2023-01-25T15:30:47.446Z,25.64
2023-01-25T15:31:47.429Z,25.68
2023-01-25T15:32:47.408Z,25.70
2023-01-25T15:33:47.465Z,25.72
2023-01-25T15:34:47.506Z,25.74
2023-01-25T15:35:47.547Z,25.76
2023-01-25T15:36:47.577Z,25.79
2023-01-25T15:37:49.244Z,25.81
2023-01-25T15:38:47.695Z,25.82
2023-01-25T15:39:47.759Z,25.83
2023-01-25T15:40:47.857Z,25.84
2023-01-25T15:41:47.863Z,25.84
2023-01-25T15:42:47.925Z,25.85
2023-01-25T15:43:48.044Z,25.86
2023-01-25T15:44:48.069Z,25.86
2023-01-25T15:45:48.198Z,25.86
2023-01-25T15:46:48.151Z,25.87
2023-01-25T15:47:48.206Z,25.88
2023-01-25T15:48:48.289Z,25.89
2023-01-25T15:49:48.343Z,25.90
2023-01-25T15:50:48.388Z,25.90
2023-01-25T15:51:48.465Z,25.89
2023-01-25T15:52:48.530Z,25.89
2023-01-25T15:53:48.595Z,25.89
2023-01-25T15:54:52.441Z,25.87
2023-01-25T15:56:48.618Z,25.86
2023-01-25T15:57:48.643Z,25.86
2023-01-25T15:58:48.617Z,25.87
2023-01-25T15:59:48.604Z,25.87
2023-01-25T16:00:48.630Z,25.87
2023-01-25T16:01:48.607Z,25.87
2023-01-25T16:02:48.583Z,25.86
2023-01-25T16:03:48.574Z,25.86
2023-01-25T16:04:48.548Z,25.85
2023-01-25T16:05:51.417Z,25.84
2023-01-25T16:06:48.558Z,25.84
2023-01-25T16:07:48.558Z,25.82
2023-01-25T16:08:48.513Z,25.83
2023-01-25T17:23:48.076Z,25.61
2023-01-25T17:24:48.005Z,25.61
2023-01-25T17:25:48.000Z,25.62
2023-01-25T17:26:47.970Z,25.62
2023-01-25T17:27:48.008Z,25.62
2023-01-25T17:28:47.970Z,25.61
2023-01-25T17:29:47.950Z,25.60
2023-01-25T17:30:48.091Z,25.60
2023-01-25T17:31:48.000Z,25.61
2023-01-25T17:32:47.948Z,25.61
2023-01-25T17:33:47.956Z,25.60
2023-01-25T17:34:47.903Z,25.60
2023-01-25T17:35:47.953Z,25.60
2023-01-25T17:36:47.941Z,25.60
2023-01-25T17:37:47.890Z,25.59
2023-01-25T17:38:47.927Z,25.59
2023-01-25T17:39:47.897Z,25.59
2023-01-25T17:40:47.903Z,25.57
2023-01-25T17:41:47.926Z,25.57
2023-01-25T17:42:47.857Z,25.56
2023-01-25T17:43:47.895Z,25.56
2023-01-25T17:44:47.862Z,25.56
2023-01-25T17:45:47.934Z,25.56
2023-01-25T17:46:47.845Z,25.56
2023-01-25T17:47:47.846Z,25.56
2023-01-25T17:48:47.914Z,25.55
2023-01-25T17:49:47.945Z,25.56
2023-01-25T17:50:47.910Z,25.56
2023-01-25T17:51:47.912Z,25.55
2023-01-25T17:52:47.927Z,25.56
2023-01-25T17:53:47.985Z,25.55
2023-01-25T17:54:47.952Z,25.55
2023-01-25T17:55:47.954Z,25.55
2023-01-25T17:56:47.959Z,25.55
2023-01-25T17:57:47.980Z,25.54
2023-01-25T17:58:48.011Z,25.55
2023-01-25T17:59:47.958Z,25.56
2023-01-25T18:00:47.990Z,25.56
2023-01-25T18:01:48.031Z,25.56
2023-01-25T18:02:48.017Z,25.55
2023-01-25T18:03:48.006Z,25.55
2023-01-25T18:04:48.020Z,25.54
2023-01-25T18:05:48.009Z,25.55
2023-01-25T18:06:48.046Z,25.54
2023-01-25T18:07:48.114Z,25.54
2023-01-25T18:08:48.132Z,25.54
2023-01-25T18:09:48.134Z,25.53
2023-01-25T18:10:48.192Z,25.53
2023-01-25T18:11:48.219Z,25.53
2023-01-25T18:13:03.367Z,25.53
2023-01-25T18:13:49.248Z,25.52
2023-01-25T18:14:48.243Z,25.53
2023-01-25T18:15:48.220Z,25.53
2023-01-25T18:16:48.270Z,25.53
2023-01-25T18:17:48.212Z,25.53
2023-01-25T18:18:48.173Z,25.53
2023-01-25T18:19:48.203Z,25.53
2023-01-25T18:20:48.213Z,25.53
2023-01-25T18:21:48.207Z,25.52
2023-01-25T18:22:48.175Z,25.51
2023-01-25T18:23:48.180Z,25.52
2023-01-25T18:24:48.172Z,25.53
2023-01-25T18:25:48.184Z,25.51
2023-01-25T18:26:48.131Z,25.51
2023-01-25T18:27:48.131Z,25.52
2023-01-25T18:28:48.139Z,25.52
2023-01-25T18:29:48.116Z,25.52
2023-01-25T18:30:48.215Z,25.52
2023-01-25T18:31:48.273Z,25.51
2023-01-25T18:32:48.123Z,25.50
2023-01-25T18:33:48.092Z,25.51
2023-01-25T21:05:52.552Z,25.34
2023-01-25T21:06:52.542Z,25.35
2023-01-25T21:07:52.548Z,25.35
2023-01-25T21:08:52.558Z,25.34
2023-01-25T21:09:52.609Z,25.34
2023-01-25T21:10:52.621Z,25.34
2023-01-25T21:11:52.603Z,25.34
2023-01-25T21:12:52.631Z,25.33
2023-01-25T21:13:52.676Z,25.33
2023-01-25T21:14:52.673Z,25.33
2023-01-25T21:15:52.685Z,25.34
2023-01-25T21:16:52.728Z,25.33
2023-01-25T21:17:52.722Z,25.33
2023-01-25T21:18:52.747Z,25.33
2023-01-25T21:19:52.765Z,25.32
2023-01-25T21:20:52.785Z,25.32
2023-01-25T21:21:52.799Z,25.32
2023-01-25T21:22:52.786Z,25.32
2023-01-25T21:23:52.901Z,25.31
2023-01-25T21:24:52.811Z,25.32
2023-01-25T21:25:52.874Z,25.31
2023-01-25T21:26:52.913Z,25.32
2023-01-25T21:27:52.913Z,25.32
2023-01-25T21:28:52.980Z,25.31
2023-01-25T21:29:53.021Z,25.31
2023-01-25T21:30:53.101Z,25.30
2023-01-25T21:31:53.147Z,25.31
2023-01-25T21:32:53.162Z,25.31
2023-01-25T21:33:53.212Z,25.30
2023-01-25T21:34:53.252Z,25.30
2023-01-25T21:35:54.293Z,25.30
2023-01-25T21:36:53.372Z,25.30
2023-01-25T21:37:53.379Z,25.30
2023-01-25T21:38:53.398Z,25.29
2023-01-25T21:39:53.475Z,25.30
2023-01-25T21:40:53.547Z,25.30
2023-01-25T21:41:53.566Z,25.30
2023-01-25T21:42:53.617Z,25.29
2023-01-25T21:43:53.686Z,25.30
2023-01-25T21:44:53.695Z,25.29
2023-01-25T21:45:53.721Z,25.29
2023-01-25T21:47:23.496Z,25.30
2023-01-25T21:47:54.697Z,25.29
2023-01-25T21:48:53.691Z,25.29
2023-01-25T21:49:53.716Z,25.30
2023-01-25T21:50:53.731Z,25.29
2023-01-25T21:51:53.697Z,25.29
2023-01-25T21:52:53.693Z,25.29
2023-01-25T21:53:53.689Z,25.28
2023-01-25T21:54:53.676Z,25.30
2023-01-25T21:55:53.632Z,25.30
2023-01-25T21:56:53.684Z,25.30
2023-01-25T21:57:53.649Z,25.30
2023-01-25T21:58:53.660Z,25.29
2023-01-25T21:59:54.445Z,25.29
2023-01-25T22:00:53.703Z,25.28
2023-01-25T22:01:53.643Z,25.29
2023-01-25T22:02:53.637Z,25.28
2023-01-25T22:03:53.616Z,25.28
2023-01-25T22:04:53.587Z,25.28
2023-01-25T22:05:53.591Z,25.30
2023-01-25T22:06:53.611Z,25.29
2023-01-25T22:07:53.594Z,25.29
2023-01-25T22:08:53.589Z,25.28
2023-01-25T22:09:53.564Z,25.28
2023-01-25T22:10:53.602Z,25.29
2023-01-25T22:11:53.612Z,25.29
2023-01-25T22:12:53.632Z,25.29
2023-01-25T22:13:53.674Z,25.29
2023-01-25T22:14:53.708Z,25.29
2023-01-25T22:37:54.613Z,25.26
2023-01-25T22:38:54.618Z,25.25
2023-01-25T22:39:54.699Z,25.25
2023-01-25T22:40:56.461Z,25.25
2023-01-25T22:41:54.679Z,25.26
2023-01-25T22:42:54.711Z,25.26
2023-01-25T22:43:54.769Z,25.27
2023-01-25T22:44:54.781Z,25.27
2023-01-25T22:45:54.857Z,25.27
2023-01-25T22:46:54.833Z,25.27
2023-01-25T22:47:54.855Z,25.26
2023-01-25T22:48:54.909Z,25.25
2023-01-25T22:49:54.946Z,25.25
2023-01-25T22:50:54.946Z,25.24
2023-01-25T22:51:54.983Z,25.24
2023-01-25T22:52:55.010Z,25.24
2023-01-25T22:53:55.063Z,25.24
2023-01-25T22:54:55.100Z,25.22
2023-01-25T22:55:55.183Z,25.23
2023-01-25T22:56:55.230Z,25.23
2023-01-25T22:57:55.329Z,25.22
2023-01-25T22:58:55.348Z,25.22
2023-01-25T22:59:55.378Z,25.22
2023-01-25T23:00:55.394Z,25.22
2023-01-25T23:01:55.384Z,25.23
2023-01-25T23:02:55.472Z,25.24
2023-01-25T23:03:55.462Z,25.24
2023-01-25T23:04:55.556Z,25.23
2023-01-25T23:05:55.553Z,25.23
2023-01-25T23:06:55.567Z,25.23
2023-01-25T23:07:55.565Z,25.22
2023-01-25T23:08:55.607Z,25.22
2023-01-25T23:09:55.664Z,25.22
2023-01-25T23:10:55.736Z,25.22
2023-01-25T23:11:55.768Z,25.23
2023-01-25T23:12:55.801Z,25.22
2023-01-25T23:13:55.840Z,25.23
2023-01-25T23:14:55.905Z,25.23
2023-01-25T23:15:55.903Z,25.23
2023-01-25T23:16:55.907Z,25.24
2023-01-25T23:17:55.958Z,25.23
2023-01-25T23:18:55.992Z,25.23
2023-01-25T23:19:56.050Z,25.23
2023-01-25T23:20:56.106Z,25.23
2023-01-25T23:21:56.253Z,25.23
2023-01-25T23:22:56.206Z,25.23
2023-01-25T23:23:56.290Z,25.24
2023-01-25T23:24:56.336Z,25.23
2023-01-25T23:25:56.373Z,25.23
2023-01-25T23:26:56.452Z,25.23
2023-01-25T23:27:56.535Z,25.23
2023-01-25T23:28:56.575Z,25.22
2023-01-25T23:29:56.642Z,25.22
2023-01-25T23:30:56.770Z,25.21
2023-01-25T23:31:56.793Z,25.21
2023-01-25T23:32:56.804Z,25.21
2023-01-25T23:33:56.831Z,25.22
2023-01-25T23:34:56.912Z,25.22
2023-01-25T23:35:56.967Z,25.21
2023-01-25T23:36:57.049Z,25.21
2023-01-25T23:37:57.081Z,25.20
2023-01-25T23:38:57.103Z,25.21
2023-01-25T23:39:57.178Z,25.21
2023-01-25T23:40:57.258Z,25.21
2023-01-25T23:41:57.333Z,25.22
2023-01-25T23:42:57.438Z,25.22
2023-01-25T23:43:57.426Z,25.21
2023-01-25T23:44:57.502Z,25.21
2023-01-25T23:45:57.560Z,25.20
2023-01-25T23:46:57.616Z,25.20
2023-01-25T23:47:57.665Z,25.19
2023-01-25T23:48:57.723Z,25.20
2023-01-25T23:49:57.767Z,25.20
2023-01-25T23:50:57.780Z,25.21
2023-01-25T23:51:57.806Z,25.21
2023-01-25T23:52:57.897Z,25.22
2023-01-25T23:53:57.937Z,25.22
2023-01-25T23:54:57.963Z,25.22
2023-01-25T23:55:58.038Z,25.21
2023-01-25T23:56:58.120Z,25.22
2023-01-25T23:57:58.151Z,25.21
2023-01-25T23:58:58.192Z,25.22
2023-01-25T23:59:58.291Z,25.22
